sensor_id;sensor_type;location;lat;lon;timestamp;P1;durP1;ratioP1;P2;durP2;ratioP2
19257;SDS011;9763;48.780;9.212;2023-03-01T00:02:11;8.43;;;7.47;;
19257;SDS011;9763;48.780;9.212;2023-03-01T00:05:36;10.17;;;7.53;;
19257;SDS011;9763;48.780;9.212;2023-03-01T00:09:06;10.03;;;7.07;;
19257;SDS011;9763;48.780;9.212;2023-03-01T00:12:29;9.43;;;7.33;;
19257;SDS011;9763;48.780;9.212;2023-03-01T00:15:54;8.30;;;7.43;;
19257;SDS011;9763;48.780;9.212;2023-03-01T00:19:18;7.47;;;6.67;;
19257;SDS011;9763;48.780;9.212;2023-03-01T00:22:44;9.40;;;6.70;;
19257;SDS011;9763;48.780;9.212;2023-03-01T00:26:12;8.80;;;6.80;;
19257;SDS011;9763;48.780;9.212;2023-03-01T00:29:38;7.47;;;6.60;;
19257;SDS011;9763;48.780;9.212;2023-03-01T00:33:02;11.10;;;7.70;;
19257;SDS011;9763;48.780;9.212;2023-03-01T00:36:26;8.10;;;6.93;;
19257;SDS011;9763;48.780;9.212;2023-03-01T00:39:57;8.13;;;7.13;;
19257;SDS011;9763;48.780;9.212;2023-03-01T00:43:21;9.17;;;7.10;;
19257;SDS011;9763;48.780;9.212;2023-03-01T00:46:45;7.97;;;6.77;;
19257;SDS011;9763;48.780;9.212;2023-03-01T00:50:09;7.93;;;7.10;;
19257;SDS011;9763;48.780;9.212;2023-03-01T00:53:34;7.97;;;6.90;;
19257;SDS011;9763;48.780;9.212;2023-03-01T00:57:00;8.27;;;7.10;;
19257;SDS011;9763;48.780;9.212;2023-03-01T01:00:24;7.90;;;6.70;;
19257;SDS011;9763;48.780;9.212;2023-03-01T01:03:51;6.87;;;6.17;;
19257;SDS011;9763;48.780;9.212;2023-03-01T01:07:18;6.30;;;5.37;;
19257;SDS011;9763;48.780;9.212;2023-03-01T01:10:43;6.27;;;5.30;;
19257;SDS011;9763;48.780;9.212;2023-03-01T01:14:08;7.67;;;6.80;;
19257;SDS011;9763;48.780;9.212;2023-03-01T01:17:32;7.67;;;6.03;;
19257;SDS011;9763;48.780;9.212;2023-03-01T01:20:56;6.67;;;6.00;;
19257;SDS011;9763;48.780;9.212;2023-03-01T01:24:21;7.33;;;5.87;;
19257;SDS011;9763;48.780;9.212;2023-03-01T01:27:45;8.13;;;6.90;;
19257;SDS011;9763;48.780;9.212;2023-03-01T01:31:10;8.83;;;7.90;;
19257;SDS011;9763;48.780;9.212;2023-03-01T01:34:34;9.77;;;7.50;;
19257;SDS011;9763;48.780;9.212;2023-03-01T01:37:57;8.37;;;6.37;;
19257;SDS011;9763;48.780;9.212;2023-03-01T01:41:22;8.20;;;6.80;;
19257;SDS011;9763;48.780;9.212;2023-03-01T01:44:47;11.60;;;7.20;;
19257;SDS011;9763;48.780;9.212;2023-03-01T01:48:34;7.13;;;6.20;;
19257;SDS011;9763;48.780;9.212;2023-03-01T01:52:07;8.40;;;7.30;;
19257;SDS011;9763;48.780;9.212;2023-03-01T01:55:36;8.47;;;6.53;;
19257;SDS011;9763;48.780;9.212;2023-03-01T01:59:05;6.87;;;6.13;;
19257;SDS011;9763;48.780;9.212;2023-03-01T02:02:29;9.10;;;7.13;;
19257;SDS011;9763;48.780;9.212;2023-03-01T02:05:56;6.90;;;6.20;;
19257;SDS011;9763;48.780;9.212;2023-03-01T02:09:26;8.60;;;7.70;;
19257;SDS011;9763;48.780;9.212;2023-03-01T02:12:51;7.57;;;6.43;;
19257;SDS011;9763;48.780;9.212;2023-03-01T02:16:17;8.43;;;7.47;;
19257;SDS011;9763;48.780;9.212;2023-03-01T02:19:43;8.37;;;6.90;;
19257;SDS011;9763;48.780;9.212;2023-03-01T02:23:25;8.90;;;6.93;;
19257;SDS011;9763;48.780;9.212;2023-03-01T02:26:52;10.13;;;7.57;;
19257;SDS011;9763;48.780;9.212;2023-03-01T02:30:21;8.33;;;7.43;;
19257;SDS011;9763;48.780;9.212;2023-03-01T02:33:47;9.17;;;7.97;;
19257;SDS011;9763;48.780;9.212;2023-03-01T02:37:11;8.97;;;7.50;;
19257;SDS011;9763;48.780;9.212;2023-03-01T02:40:42;8.80;;;7.47;;
19257;SDS011;9763;48.780;9.212;2023-03-01T02:44:10;9.03;;;8.00;;
19257;SDS011;9763;48.780;9.212;2023-03-01T02:47:37;8.27;;;7.40;;
19257;SDS011;9763;48.780;9.212;2023-03-01T02:51:03;9.40;;;7.40;;
19257;SDS011;9763;48.780;9.212;2023-03-01T02:54:38;8.07;;;7.20;;
19257;SDS011;9763;48.780;9.212;2023-03-01T02:58:09;9.47;;;7.90;;
19257;SDS011;9763;48.780;9.212;2023-03-01T03:01:34;9.00;;;7.37;;
19257;SDS011;9763;48.780;9.212;2023-03-01T03:05:03;8.77;;;7.80;;
19257;SDS011;9763;48.780;9.212;2023-03-01T03:08:31;13.43;;;8.20;;
19257;SDS011;9763;48.780;9.212;2023-03-01T03:11:54;8.87;;;7.97;;
19257;SDS011;9763;48.780;9.212;2023-03-01T03:15:18;10.87;;;9.23;;
19257;SDS011;9763;48.780;9.212;2023-03-01T03:18:43;10.83;;;8.17;;
19257;SDS011;9763;48.780;9.212;2023-03-01T03:22:08;9.63;;;8.60;;
19257;SDS011;9763;48.780;9.212;2023-03-01T03:25:32;8.47;;;7.57;;
19257;SDS011;9763;48.780;9.212;2023-03-01T03:28:59;12.57;;;8.90;;
19257;SDS011;9763;48.780;9.212;2023-03-01T03:32:23;8.27;;;7.47;;
19257;SDS011;9763;48.780;9.212;2023-03-01T03:35:48;8.93;;;7.73;;
19257;SDS011;9763;48.780;9.212;2023-03-01T03:39:14;10.00;;;8.40;;
19257;SDS011;9763;48.780;9.212;2023-03-01T03:42:41;10.73;;;7.80;;
19257;SDS011;9763;48.780;9.212;2023-03-01T03:46:04;8.13;;;7.33;;
19257;SDS011;9763;48.780;9.212;2023-03-01T03:49:29;8.90;;;8.00;;
19257;SDS011;9763;48.780;9.212;2023-03-01T03:52:53;9.50;;;7.97;;
19257;SDS011;9763;48.780;9.212;2023-03-01T03:56:18;11.67;;;8.80;;
19257;SDS011;9763;48.780;9.212;2023-03-01T03:59:41;9.87;;;8.70;;
19257;SDS011;9763;48.780;9.212;2023-03-01T04:03:05;8.40;;;7.60;;
19257;SDS011;9763;48.780;9.212;2023-03-01T04:06:29;9.90;;;8.13;;
19257;SDS011;9763;48.780;9.212;2023-03-01T04:09:54;9.77;;;8.37;;
19257;SDS011;9763;48.780;9.212;2023-03-01T04:13:19;9.30;;;8.10;;
19257;SDS011;9763;48.780;9.212;2023-03-01T04:16:47;8.77;;;7.93;;
19257;SDS011;9763;48.780;9.212;2023-03-01T04:20:11;10.00;;;7.97;;
19257;SDS011;9763;48.780;9.212;2023-03-01T04:23:38;10.10;;;8.70;;
19257;SDS011;9763;48.780;9.212;2023-03-01T04:27:03;11.47;;;8.87;;
19257;SDS011;9763;48.780;9.212;2023-03-01T04:30:28;9.87;;;8.87;;
19257;SDS011;9763;48.780;9.212;2023-03-01T04:33:57;10.13;;;8.83;;
19257;SDS011;9763;48.780;9.212;2023-03-01T04:37:22;10.10;;;9.00;;
19257;SDS011;9763;48.780;9.212;2023-03-01T04:40:47;8.80;;;7.90;;
19257;SDS011;9763;48.780;9.212;2023-03-01T04:44:11;8.20;;;7.27;;
19257;SDS011;9763;48.780;9.212;2023-03-01T04:47:37;9.43;;;8.10;;
19257;SDS011;9763;48.780;9.212;2023-03-01T04:51:00;8.80;;;7.70;;
19257;SDS011;9763;48.780;9.212;2023-03-01T04:54:25;9.47;;;8.53;;
19257;SDS011;9763;48.780;9.212;2023-03-01T04:57:49;9.47;;;8.47;;
19257;SDS011;9763;48.780;9.212;2023-03-01T05:01:13;10.07;;;9.07;;
19257;SDS011;9763;48.780;9.212;2023-03-01T05:04:41;10.63;;;8.50;;
19257;SDS011;9763;48.780;9.212;2023-03-01T05:08:06;11.00;;;8.80;;
19257;SDS011;9763;48.780;9.212;2023-03-01T05:11:31;12.63;;;9.03;;
19257;SDS011;9763;48.780;9.212;2023-03-01T05:14:57;10.73;;;9.20;;
19257;SDS011;9763;48.780;9.212;2023-03-01T05:18:21;9.80;;;8.77;;
19257;SDS011;9763;48.780;9.212;2023-03-01T05:21:48;10.40;;;8.53;;
19257;SDS011;9763;48.780;9.212;2023-03-01T05:25:25;9.97;;;8.60;;
19257;SDS011;9763;48.780;9.212;2023-03-01T05:28:54;9.90;;;8.70;;
19257;SDS011;9763;48.780;9.212;2023-03-01T05:32:21;11.90;;;9.77;;
19257;SDS011;9763;48.780;9.212;2023-03-01T05:35:45;8.40;;;7.60;;
19257;SDS011;9763;48.780;9.212;2023-03-01T05:39:11;11.23;;;9.57;;
19257;SDS011;9763;48.780;9.212;2023-03-01T05:42:35;10.00;;;8.97;;
19257;SDS011;9763;48.780;9.212;2023-03-01T05:45:58;11.40;;;9.20;;
19257;SDS011;9763;48.780;9.212;2023-03-01T05:49:23;10.90;;;8.40;;
19257;SDS011;9763;48.780;9.212;2023-03-01T05:52:47;10.43;;;8.67;;
19257;SDS011;9763;48.780;9.212;2023-03-01T05:56:15;12.43;;;9.83;;
19257;SDS011;9763;48.780;9.212;2023-03-01T05:59:39;12.17;;;9.03;;
19257;SDS011;9763;48.780;9.212;2023-03-01T06:03:03;9.33;;;8.10;;
19257;SDS011;9763;48.780;9.212;2023-03-01T06:06:26;13.03;;;8.33;;
19257;SDS011;9763;48.780;9.212;2023-03-01T06:09:51;9.83;;;8.37;;
19257;SDS011;9763;48.780;9.212;2023-03-01T06:13:16;9.80;;;8.80;;
19257;SDS011;9763;48.780;9.212;2023-03-01T06:16:40;10.37;;;8.97;;
19257;SDS011;9763;48.780;9.212;2023-03-01T06:20:04;9.73;;;8.60;;
19257;SDS011;9763;48.780;9.212;2023-03-01T06:23:31;11.00;;;8.43;;
19257;SDS011;9763;48.780;9.212;2023-03-01T06:26:55;9.87;;;8.63;;
19257;SDS011;9763;48.780;9.212;2023-03-01T06:30:21;9.13;;;8.23;;
19257;SDS011;9763;48.780;9.212;2023-03-01T06:33:46;15.50;;;9.00;;
19257;SDS011;9763;48.780;9.212;2023-03-01T06:37:10;8.50;;;7.40;;
19257;SDS011;9763;48.780;9.212;2023-03-01T06:40:33;10.67;;;9.57;;
19257;SDS011;9763;48.780;9.212;2023-03-01T06:43:58;10.73;;;9.63;;
19257;SDS011;9763;48.780;9.212;2023-03-01T06:47:23;14.03;;;10.97;;
19257;SDS011;9763;48.780;9.212;2023-03-01T06:50:46;8.97;;;7.73;;
19257;SDS011;9763;48.780;9.212;2023-03-01T06:54:10;11.70;;;9.17;;
19257;SDS011;9763;48.780;9.212;2023-03-01T06:57:34;10.33;;;8.90;;
19257;SDS011;9763;48.780;9.212;2023-03-01T07:00:57;11.93;;;8.17;;
19257;SDS011;9763;48.780;9.212;2023-03-01T07:04:22;11.43;;;9.53;;
19257;SDS011;9763;48.780;9.212;2023-03-01T07:07:47;11.70;;;9.00;;
19257;SDS011;9763;48.780;9.212;2023-03-01T07:11:10;10.80;;;8.63;;
19257;SDS011;9763;48.780;9.212;2023-03-01T07:14:34;11.00;;;9.53;;
19257;SDS011;9763;48.780;9.212;2023-03-01T07:17:57;11.43;;;9.50;;
19257;SDS011;9763;48.780;9.212;2023-03-01T07:21:22;10.37;;;9.30;;
19257;SDS011;9763;48.780;9.212;2023-03-01T07:24:46;13.13;;;9.10;;
19257;SDS011;9763;48.780;9.212;2023-03-01T07:28:09;11.53;;;8.93;;
19257;SDS011;9763;48.780;9.212;2023-03-01T07:31:34;10.87;;;9.73;;
19257;SDS011;9763;48.780;9.212;2023-03-01T07:34:58;9.83;;;8.73;;
19257;SDS011;9763;48.780;9.212;2023-03-01T07:38:24;10.33;;;8.80;;
19257;SDS011;9763;48.780;9.212;2023-03-01T07:41:47;13.33;;;9.30;;
19257;SDS011;9763;48.780;9.212;2023-03-01T07:45:15;13.10;;;10.57;;
19257;SDS011;9763;48.780;9.212;2023-03-01T07:48:39;10.63;;;9.20;;
19257;SDS011;9763;48.780;9.212;2023-03-01T07:52:02;10.60;;;9.00;;
19257;SDS011;9763;48.780;9.212;2023-03-01T07:55:28;10.70;;;9.57;;
19257;SDS011;9763;48.780;9.212;2023-03-01T07:58:51;8.97;;;8.17;;
19257;SDS011;9763;48.780;9.212;2023-03-01T08:02:15;10.10;;;9.00;;
19257;SDS011;9763;48.780;9.212;2023-03-01T08:05:39;12.43;;;10.17;;
19257;SDS011;9763;48.780;9.212;2023-03-01T08:09:03;9.10;;;8.20;;
19257;SDS011;9763;48.780;9.212;2023-03-01T08:12:28;10.53;;;9.43;;
19257;SDS011;9763;48.780;9.212;2023-03-01T08:15:52;11.87;;;9.73;;
19257;SDS011;9763;48.780;9.212;2023-03-01T08:19:16;10.03;;;9.03;;
19257;SDS011;9763;48.780;9.212;2023-03-01T08:22:40;9.67;;;8.73;;
19257;SDS011;9763;48.780;9.212;2023-03-01T08:26:05;12.77;;;9.60;;
19257;SDS011;9763;48.780;9.212;2023-03-01T08:29:31;11.23;;;8.90;;
19257;SDS011;9763;48.780;9.212;2023-03-01T08:32:56;8.90;;;8.00;;
19257;SDS011;9763;48.780;9.212;2023-03-01T08:36:20;8.40;;;7.60;;
19257;SDS011;9763;48.780;9.212;2023-03-01T08:39:44;7.53;;;6.73;;
19257;SDS011;9763;48.780;9.212;2023-03-01T08:43:10;6.33;;;5.53;;
19257;SDS011;9763;48.780;9.212;2023-03-01T08:46:35;5.43;;;4.83;;
19257;SDS011;9763;48.780;9.212;2023-03-01T08:50:01;6.63;;;5.27;;
19257;SDS011;9763;48.780;9.212;2023-03-01T08:53:26;6.37;;;5.77;;
19257;SDS011;9763;48.780;9.212;2023-03-01T08:56:49;6.53;;;5.83;;
19257;SDS011;9763;48.780;9.212;2023-03-01T09:00:13;7.27;;;5.87;;
19257;SDS011;9763;48.780;9.212;2023-03-01T09:03:40;7.30;;;6.10;;
19257;SDS011;9763;48.780;9.212;2023-03-01T09:07:04;6.37;;;5.77;;
19257;SDS011;9763;48.780;9.212;2023-03-01T09:10:29;6.97;;;6.27;;
19257;SDS011;9763;48.780;9.212;2023-03-01T09:13:53;5.97;;;5.47;;
19257;SDS011;9763;48.780;9.212;2023-03-01T09:17:17;6.03;;;5.47;;
19257;SDS011;9763;48.780;9.212;2023-03-01T09:20:44;6.33;;;5.73;;
19257;SDS011;9763;48.780;9.212;2023-03-01T09:24:11;6.40;;;5.80;;
19257;SDS011;9763;48.780;9.212;2023-03-01T09:27:44;7.50;;;6.80;;
19257;SDS011;9763;48.780;9.212;2023-03-01T09:31:07;7.10;;;6.50;;
19257;SDS011;9763;48.780;9.212;2023-03-01T09:34:34;7.30;;;6.60;;
19257;SDS011;9763;48.780;9.212;2023-03-01T09:38:20;8.10;;;7.30;;
19257;SDS011;9763;48.780;9.212;2023-03-01T09:41:46;7.53;;;6.93;;
19257;SDS011;9763;48.780;9.212;2023-03-01T09:45:19;7.43;;;6.73;;
19257;SDS011;9763;48.780;9.212;2023-03-01T09:48:57;7.87;;;7.07;;
19257;SDS011;9763;48.780;9.212;2023-03-01T09:52:29;8.17;;;7.37;;
19257;SDS011;9763;48.780;9.212;2023-03-01T09:56:03;8.03;;;7.33;;
19257;SDS011;9763;48.780;9.212;2023-03-01T09:59:38;8.10;;;7.40;;
19257;SDS011;9763;48.780;9.212;2023-03-01T10:03:22;9.10;;;8.30;;
19257;SDS011;9763;48.780;9.212;2023-03-01T10:06:58;9.00;;;8.10;;
19257;SDS011;9763;48.780;9.212;2023-03-01T10:10:40;7.80;;;7.10;;
19257;SDS011;9763;48.780;9.212;2023-03-01T10:14:13;7.93;;;7.17;;
19257;SDS011;9763;48.780;9.212;2023-03-01T10:17:47;7.70;;;7.00;;
19257;SDS011;9763;48.780;9.212;2023-03-01T10:21:19;8.80;;;8.10;;
19257;SDS011;9763;48.780;9.212;2023-03-01T10:24:43;8.90;;;8.10;;
19257;SDS011;9763;48.780;9.212;2023-03-01T10:28:10;8.23;;;7.50;;
19257;SDS011;9763;48.780;9.212;2023-03-01T10:31:42;6.93;;;6.33;;
19257;SDS011;9763;48.780;9.212;2023-03-01T10:35:16;6.90;;;6.40;;
19257;SDS011;9763;48.780;9.212;2023-03-01T10:38:49;6.90;;;6.20;;
19257;SDS011;9763;48.780;9.212;2023-03-01T10:42:19;6.53;;;5.53;;
19257;SDS011;9763;48.780;9.212;2023-03-01T10:45:49;8.23;;;7.53;;
19257;SDS011;9763;48.780;9.212;2023-03-01T10:49:16;7.70;;;7.00;;
19257;SDS011;9763;48.780;9.212;2023-03-01T10:52:42;7.73;;;7.00;;
19257;SDS011;9763;48.780;9.212;2023-03-01T10:56:22;7.80;;;7.10;;
19257;SDS011;9763;48.780;9.212;2023-03-01T10:59:47;8.57;;;7.83;;
19257;SDS011;9763;48.780;9.212;2023-03-01T11:03:40;8.47;;;7.67;;
19257;SDS011;9763;48.780;9.212;2023-03-01T11:07:06;7.77;;;7.10;;
19257;SDS011;9763;48.780;9.212;2023-03-01T11:10:30;8.57;;;7.80;;
19257;SDS011;9763;48.780;9.212;2023-03-01T11:13:57;8.00;;;7.30;;
19257;SDS011;9763;48.780;9.212;2023-03-01T11:17:31;7.50;;;6.80;;
19257;SDS011;9763;48.780;9.212;2023-03-01T11:21:14;8.60;;;7.90;;
19257;SDS011;9763;48.780;9.212;2023-03-01T11:24:40;7.00;;;6.50;;
19257;SDS011;9763;48.780;9.212;2023-03-01T11:28:12;7.30;;;6.67;;
19257;SDS011;9763;48.780;9.212;2023-03-01T11:31:39;7.57;;;6.83;;
19257;SDS011;9763;48.780;9.212;2023-03-01T11:35:19;8.60;;;7.80;;
19257;SDS011;9763;48.780;9.212;2023-03-01T11:38:48;6.67;;;6.07;;
19257;SDS011;9763;48.780;9.212;2023-03-01T11:42:15;6.97;;;6.37;;
19257;SDS011;9763;48.780;9.212;2023-03-01T11:45:48;6.30;;;5.70;;
19257;SDS011;9763;48.780;9.212;2023-03-01T11:49:34;6.77;;;6.17;;
19257;SDS011;9763;48.780;9.212;2023-03-01T11:53:27;6.50;;;6.00;;
19257;SDS011;9763;48.780;9.212;2023-03-01T11:57:16;7.47;;;6.77;;
19257;SDS011;9763;48.780;9.212;2023-03-01T12:05:12;7.43;;;6.83;;
19257;SDS011;9763;48.780;9.212;2023-03-01T12:09:19;7.30;;;6.60;;
19257;SDS011;9763;48.780;9.212;2023-03-01T12:12:58;6.57;;;6.00;;
19257;SDS011;9763;48.780;9.212;2023-03-01T12:16:56;6.77;;;6.17;;
19257;SDS011;9763;48.780;9.212;2023-03-01T12:20:39;5.60;;;5.10;;
19257;SDS011;9763;48.780;9.212;2023-03-01T12:28:39;4.97;;;4.57;;
19257;SDS011;9763;48.780;9.212;2023-03-01T12:32:41;6.37;;;5.77;;
19257;SDS011;9763;48.780;9.212;2023-03-01T12:36:24;5.30;;;4.80;;
19257;SDS011;9763;48.780;9.212;2023-03-01T12:40:34;6.90;;;6.30;;
19257;SDS011;9763;48.780;9.212;2023-03-01T12:44:27;6.20;;;5.60;;
19257;SDS011;9763;48.780;9.212;2023-03-01T12:48:15;6.73;;;5.53;;
19257;SDS011;9763;48.780;9.212;2023-03-01T12:52:03;4.70;;;4.30;;
19257;SDS011;9763;48.780;9.212;2023-03-01T12:55:38;6.03;;;4.97;;
19257;SDS011;9763;48.780;9.212;2023-03-01T12:59:08;6.87;;;5.40;;
19257;SDS011;9763;48.780;9.212;2023-03-01T13:02:45;6.27;;;5.67;;
19257;SDS011;9763;48.780;9.212;2023-03-01T13:06:19;5.83;;;5.03;;
19257;SDS011;9763;48.780;9.212;2023-03-01T13:10:11;5.90;;;5.00;;
19257;SDS011;9763;48.780;9.212;2023-03-01T13:13:47;5.63;;;5.13;;
19257;SDS011;9763;48.780;9.212;2023-03-01T13:17:33;6.43;;;5.37;;
19257;SDS011;9763;48.780;9.212;2023-03-01T13:21:09;5.47;;;4.70;;
19257;SDS011;9763;48.780;9.212;2023-03-01T13:24:34;8.33;;;7.30;;
19257;SDS011;9763;48.780;9.212;2023-03-01T13:32:19;8.90;;;5.33;;
19257;SDS011;9763;48.780;9.212;2023-03-01T13:36:02;7.63;;;4.97;;
19257;SDS011;9763;48.780;9.212;2023-03-01T13:39:31;4.90;;;4.37;;
19257;SDS011;9763;48.780;9.212;2023-03-01T13:46:53;5.60;;;5.00;;
19257;SDS011;9763;48.780;9.212;2023-03-01T13:50:25;5.00;;;4.50;;
19257;SDS011;9763;48.780;9.212;2023-03-01T13:53:55;4.60;;;4.20;;
19257;SDS011;9763;48.780;9.212;2023-03-01T13:57:24;5.13;;;4.63;;
19257;SDS011;9763;48.780;9.212;2023-03-01T14:00:56;5.10;;;4.60;;
19257;SDS011;9763;48.780;9.212;2023-03-01T14:04:24;6.70;;;6.10;;
19257;SDS011;9763;48.780;9.212;2023-03-01T14:07:50;7.13;;;6.43;;
19257;SDS011;9763;48.780;9.212;2023-03-01T14:15:37;8.57;;;4.83;;
19257;SDS011;9763;48.780;9.212;2023-03-01T14:19:14;6.90;;;5.17;;
19257;SDS011;9763;48.780;9.212;2023-03-01T14:22:54;6.53;;;5.10;;
19257;SDS011;9763;48.780;9.212;2023-03-01T14:26:21;6.37;;;5.10;;
19257;SDS011;9763;48.780;9.212;2023-03-01T14:29:53;6.80;;;6.03;;
19257;SDS011;9763;48.780;9.212;2023-03-01T14:33:23;7.27;;;5.40;;
19257;SDS011;9763;48.780;9.212;2023-03-01T14:36:49;5.87;;;5.23;;
19257;SDS011;9763;48.780;9.212;2023-03-01T14:40:20;5.20;;;4.70;;
19257;SDS011;9763;48.780;9.212;2023-03-01T14:43:49;6.70;;;6.00;;
19257;SDS011;9763;48.780;9.212;2023-03-01T14:47:21;6.47;;;5.57;;
19257;SDS011;9763;48.780;9.212;2023-03-01T14:50:52;5.80;;;5.20;;
19257;SDS011;9763;48.780;9.212;2023-03-01T14:54:19;6.43;;;5.70;;
19257;SDS011;9763;48.780;9.212;2023-03-01T14:57:48;7.93;;;7.13;;
19257;SDS011;9763;48.780;9.212;2023-03-01T15:01:14;6.10;;;5.50;;
19257;SDS011;9763;48.780;9.212;2023-03-01T15:04:40;6.27;;;5.60;;
19257;SDS011;9763;48.780;9.212;2023-03-01T15:08:07;5.17;;;4.43;;
19257;SDS011;9763;48.780;9.212;2023-03-01T15:11:42;7.60;;;6.07;;
19257;SDS011;9763;48.780;9.212;2023-03-01T15:18:58;6.13;;;5.53;;
19257;SDS011;9763;48.780;9.212;2023-03-01T15:22:26;7.53;;;6.10;;
19257;SDS011;9763;48.780;9.212;2023-03-01T15:25:52;6.30;;;5.07;;
19257;SDS011;9763;48.780;9.212;2023-03-01T15:29:23;6.63;;;4.97;;
19257;SDS011;9763;48.780;9.212;2023-03-01T15:36:43;5.70;;;4.80;;
19257;SDS011;9763;48.780;9.212;2023-03-01T15:40:18;6.77;;;5.60;;
19257;SDS011;9763;48.780;9.212;2023-03-01T15:43:54;6.53;;;5.77;;
19257;SDS011;9763;48.780;9.212;2023-03-01T15:47:28;6.17;;;4.80;;
19257;SDS011;9763;48.780;9.212;2023-03-01T15:50:54;6.60;;;5.60;;
19257;SDS011;9763;48.780;9.212;2023-03-01T15:54:21;9.53;;;6.90;;
19257;SDS011;9763;48.780;9.212;2023-03-01T15:57:49;6.20;;;5.60;;
19257;SDS011;9763;48.780;9.212;2023-03-01T16:01:23;5.90;;;4.77;;
19257;SDS011;9763;48.780;9.212;2023-03-01T16:04:47;6.73;;;6.03;;
19257;SDS011;9763;48.780;9.212;2023-03-01T16:08:11;5.63;;;5.03;;
19257;SDS011;9763;48.780;9.212;2023-03-01T16:11:34;7.30;;;5.77;;
19257;SDS011;9763;48.780;9.212;2023-03-01T16:15:00;6.77;;;6.07;;
19257;SDS011;9763;48.780;9.212;2023-03-01T16:18:25;6.60;;;5.63;;
19257;SDS011;9763;48.780;9.212;2023-03-01T16:21:49;5.93;;;5.33;;
19257;SDS011;9763;48.780;9.212;2023-03-01T16:25:13;6.80;;;5.60;;
19257;SDS011;9763;48.780;9.212;2023-03-01T16:28:39;6.20;;;5.60;;
19257;SDS011;9763;48.780;9.212;2023-03-01T16:32:04;5.87;;;5.27;;
19257;SDS011;9763;48.780;9.212;2023-03-01T16:35:29;6.67;;;5.80;;
19257;SDS011;9763;48.780;9.212;2023-03-01T16:38:53;7.13;;;5.40;;
19257;SDS011;9763;48.780;9.212;2023-03-01T16:42:17;6.50;;;5.03;;
19257;SDS011;9763;48.780;9.212;2023-03-01T16:45:41;5.10;;;4.30;;
19257;SDS011;9763;48.780;9.212;2023-03-01T16:49:06;6.37;;;4.43;;
19257;SDS011;9763;48.780;9.212;2023-03-01T16:52:31;5.70;;;4.90;;
19257;SDS011;9763;48.780;9.212;2023-03-01T16:55:56;5.77;;;5.00;;
19257;SDS011;9763;48.780;9.212;2023-03-01T16:59:21;5.43;;;4.90;;
19257;SDS011;9763;48.780;9.212;2023-03-01T17:02:45;6.20;;;5.07;;
19257;SDS011;9763;48.780;9.212;2023-03-01T17:06:10;4.67;;;4.20;;
19257;SDS011;9763;48.780;9.212;2023-03-01T17:09:37;6.40;;;4.70;;
19257;SDS011;9763;48.780;9.212;2023-03-01T17:13:01;6.10;;;5.50;;
19257;SDS011;9763;48.780;9.212;2023-03-01T17:16:25;5.50;;;4.60;;
19257;SDS011;9763;48.780;9.212;2023-03-01T17:19:49;5.57;;;4.73;;
19257;SDS011;9763;48.780;9.212;2023-03-01T17:23:13;6.73;;;4.60;;
19257;SDS011;9763;48.780;9.212;2023-03-01T17:26:38;5.13;;;4.63;;
19257;SDS011;9763;48.780;9.212;2023-03-01T17:30:03;4.83;;;4.33;;
19257;SDS011;9763;48.780;9.212;2023-03-01T17:33:31;4.70;;;4.20;;
19257;SDS011;9763;48.780;9.212;2023-03-01T17:36:54;5.03;;;4.50;;
19257;SDS011;9763;48.780;9.212;2023-03-01T17:40:18;6.03;;;4.90;;
19257;SDS011;9763;48.780;9.212;2023-03-01T17:43:43;6.13;;;4.70;;
19257;SDS011;9763;48.780;9.212;2023-03-01T17:47:08;4.87;;;4.37;;
19257;SDS011;9763;48.780;9.212;2023-03-01T17:50:33;5.63;;;4.97;;
19257;SDS011;9763;48.780;9.212;2023-03-01T17:54:00;5.90;;;4.93;;
19257;SDS011;9763;48.780;9.212;2023-03-01T17:57:24;5.57;;;4.90;;
19257;SDS011;9763;48.780;9.212;2023-03-01T18:00:49;7.37;;;5.50;;
19257;SDS011;9763;48.780;9.212;2023-03-01T18:04:13;6.30;;;5.30;;
19257;SDS011;9763;48.780;9.212;2023-03-01T18:07:39;5.80;;;4.87;;
19257;SDS011;9763;48.780;9.212;2023-03-01T18:11:03;4.93;;;4.43;;
19257;SDS011;9763;48.780;9.212;2023-03-01T18:14:27;4.90;;;4.30;;
19257;SDS011;9763;48.780;9.212;2023-03-01T18:17:55;4.87;;;4.30;;
19257;SDS011;9763;48.780;9.212;2023-03-01T18:21:20;5.83;;;5.20;;
19257;SDS011;9763;48.780;9.212;2023-03-01T18:24:44;4.10;;;3.70;;
19257;SDS011;9763;48.780;9.212;2023-03-01T18:28:08;5.20;;;4.70;;
19257;SDS011;9763;48.780;9.212;2023-03-01T18:31:31;5.57;;;5.07;;
19257;SDS011;9763;48.780;9.212;2023-03-01T18:34:56;6.87;;;5.40;;
19257;SDS011;9763;48.780;9.212;2023-03-01T18:38:20;6.67;;;5.90;;
19257;SDS011;9763;48.780;9.212;2023-03-01T18:41:44;7.37;;;5.80;;
19257;SDS011;9763;48.780;9.212;2023-03-01T18:45:08;6.83;;;5.87;;
19257;SDS011;9763;48.780;9.212;2023-03-01T18:48:34;9.33;;;7.10;;
19257;SDS011;9763;48.780;9.212;2023-03-01T18:51:59;7.67;;;6.33;;
19257;SDS011;9763;48.780;9.212;2023-03-01T18:55:23;9.87;;;6.80;;
19257;SDS011;9763;48.780;9.212;2023-03-01T18:58:47;7.27;;;6.40;;
19257;SDS011;9763;48.780;9.212;2023-03-01T19:02:11;6.40;;;5.20;;
19257;SDS011;9763;48.780;9.212;2023-03-01T19:05:36;5.30;;;4.57;;
19257;SDS011;9763;48.780;9.212;2023-03-01T19:09:05;5.90;;;5.30;;
19257;SDS011;9763;48.780;9.212;2023-03-01T19:12:33;6.00;;;5.20;;
19257;SDS011;9763;48.780;9.212;2023-03-01T19:16:01;5.93;;;5.33;;
19257;SDS011;9763;48.780;9.212;2023-03-01T19:19:27;6.23;;;5.53;;
19257;SDS011;9763;48.780;9.212;2023-03-01T19:22:50;6.53;;;5.83;;
19257;SDS011;9763;48.780;9.212;2023-03-01T19:26:16;6.80;;;6.00;;
19257;SDS011;9763;48.780;9.212;2023-03-01T19:29:43;6.37;;;5.70;;
19257;SDS011;9763;48.780;9.212;2023-03-01T19:33:06;7.50;;;6.50;;
19257;SDS011;9763;48.780;9.212;2023-03-01T19:36:31;8.37;;;6.60;;
19257;SDS011;9763;48.780;9.212;2023-03-01T19:39:55;10.37;;;7.83;;
19257;SDS011;9763;48.780;9.212;2023-03-01T19:43:20;7.87;;;6.60;;
19257;SDS011;9763;48.780;9.212;2023-03-01T19:46:44;8.10;;;7.30;;
19257;SDS011;9763;48.780;9.212;2023-03-01T19:50:09;8.50;;;7.63;;
19257;SDS011;9763;48.780;9.212;2023-03-01T19:53:34;9.60;;;7.27;;
19257;SDS011;9763;48.780;9.212;2023-03-01T19:57:00;7.80;;;6.60;;
19257;SDS011;9763;48.780;9.212;2023-03-01T20:00:28;8.20;;;7.23;;
19257;SDS011;9763;48.780;9.212;2023-03-01T20:03:51;9.00;;;7.33;;
19257;SDS011;9763;48.780;9.212;2023-03-01T20:07:15;8.30;;;5.47;;
19257;SDS011;9763;48.780;9.212;2023-03-01T20:10:40;7.43;;;6.10;;
19257;SDS011;9763;48.780;9.212;2023-03-01T20:14:03;6.73;;;6.00;;
19257;SDS011;9763;48.780;9.212;2023-03-01T20:17:32;6.23;;;5.37;;
19257;SDS011;9763;48.780;9.212;2023-03-01T20:20:57;6.80;;;5.40;;
19257;SDS011;9763;48.780;9.212;2023-03-01T20:24:23;8.33;;;6.50;;
19257;SDS011;9763;48.780;9.212;2023-03-01T20:27:47;7.07;;;6.33;;
19257;SDS011;9763;48.780;9.212;2023-03-01T20:31:13;6.70;;;5.60;;
19257;SDS011;9763;48.780;9.212;2023-03-01T20:34:40;7.50;;;5.80;;
19257;SDS011;9763;48.780;9.212;2023-03-01T20:38:04;6.53;;;5.83;;
19257;SDS011;9763;48.780;9.212;2023-03-01T20:41:28;8.10;;;6.90;;
19257;SDS011;9763;48.780;9.212;2023-03-01T20:44:52;6.87;;;6.17;;
19257;SDS011;9763;48.780;9.212;2023-03-01T20:48:16;12.00;;;7.00;;
19257;SDS011;9763;48.780;9.212;2023-03-01T20:51:41;6.87;;;6.17;;
19257;SDS011;9763;48.780;9.212;2023-03-01T20:55:05;6.00;;;5.40;;
19257;SDS011;9763;48.780;9.212;2023-03-01T20:58:30;5.63;;;5.07;;
19257;SDS011;9763;48.780;9.212;2023-03-01T21:01:56;7.57;;;6.30;;
19257;SDS011;9763;48.780;9.212;2023-03-01T21:05:19;6.77;;;5.50;;
19257;SDS011;9763;48.780;9.212;2023-03-01T21:08:44;7.30;;;6.17;;
19257;SDS011;9763;48.780;9.212;2023-03-01T21:12:08;7.50;;;5.93;;
19257;SDS011;9763;48.780;9.212;2023-03-01T21:15:32;6.77;;;6.07;;
19257;SDS011;9763;48.780;9.212;2023-03-01T21:18:57;8.47;;;6.17;;
19257;SDS011;9763;48.780;9.212;2023-03-01T21:22:22;7.77;;;6.20;;
19257;SDS011;9763;48.780;9.212;2023-03-01T21:25:47;5.63;;;5.07;;
19257;SDS011;9763;48.780;9.212;2023-03-01T21:29:22;6.70;;;6.00;;
19257;SDS011;9763;48.780;9.212;2023-03-01T21:32:46;7.80;;;5.80;;
19257;SDS011;9763;48.780;9.212;2023-03-01T21:36:10;6.73;;;6.10;;